Time;durP1;ratioP1;P1;durP2;ratioP2;P2;SDS_P1;SDS_P2;PMS_P1;PMS_P2;Temp;Humidity;BMP_temperature;BMP_pressure;BME280_temperature;BME280_humidity;BME280_pressure;Samples;Min_cycle;Max_cycle;Signal;HPM_P1;HPM_P2
2023/10/16 00:00:29;;;;;;;5.45;1.35;;;7.20;99.90;;;;;;5032734;28;20403;-73
2023/10/16 00:02:59;;;;;;;7.28;1.50;;;7.30;99.90;;;;;;5054071;28;20049;-73
2023/10/16 00:05:31;;;;;;;4.65;1.50;;;7.20;99.90;;;;;;5030275;28;20049;-73
2023/10/16 00:08:05;;;;;;;5.95;1.60;;;7.30;99.90;;;;;;5047859;28;20334;-73
2023/10/16 00:10:31;;;;;;;4.10;1.38;;;7.30;99.90;;;;;;5016691;28;20063;-73
2023/10/16 00:13:03;;;;;;;7.10;1.52;;;7.30;99.90;;;;;;5029354;28;20033;-74
2023/10/16 00:15:30;;;;;;;4.75;1.60;;;7.30;99.90;;;;;;5019348;28;20076;-73
2023/10/16 00:17:57;;;;;;;5.75;1.38;;;7.30;99.90;;;;;;5026388;28;20107;-73
2023/10/16 00:20:25;;;;;;;4.38;1.50;;;7.30;99.90;;;;;;5025102;28;20041;-73
2023/10/16 00:22:50;;;;;;;7.40;1.77;;;7.30;99.90;;;;;;5050950;28;20662;-73
2023/10/16 00:25:18;;;;;;;5.72;1.38;;;7.20;99.90;;;;;;5016710;28;20057;-73
2023/10/16 00:27:44;;;;;;;6.22;1.73;;;7.30;99.90;;;;;;5039091;28;20088;-73
2023/10/16 00:30:10;;;;;;;3.67;1.17;;;7.30;99.90;;;;;;5023337;28;20507;-73
2023/10/16 00:32:37;;;;;;;4.70;1.40;;;7.30;99.90;;;;;;5025977;28;20503;-73
2023/10/16 00:35:08;;;;;;;6.22;1.90;;;7.30;99.90;;;;;;5039148;28;20052;-73
2023/10/16 00:37:34;;;;;;;4.55;1.70;;;7.30;99.90;;;;;;5029213;28;20293;-73
2023/10/16 00:40:02;;;;;;;6.20;1.55;;;7.30;99.90;;;;;;5022257;28;20132;-74
2023/10/16 00:42:29;;;;;;;5.80;1.58;;;7.30;99.90;;;;;;5027312;28;20033;-73
2023/10/16 00:44:59;;;;;;;5.70;1.55;;;7.30;99.90;;;;;;5035559;28;20061;-73
2023/10/16 00:47:25;;;;;;;;;;;7.30;99.90;;;;;;5045604;28;20045;-73
2023/10/16 00:49:51;;;;;;;5.78;1.20;;;7.30;99.90;;;;;;5041056;28;19933;-73
2023/10/16 00:52:18;;;;;;;5.47;1.70;;;7.30;99.90;;;;;;5047277;28;20075;-73
2023/10/16 00:54:46;;;;;;;3.97;1.38;;;7.40;99.90;;;;;;5044590;28;20364;-73
2023/10/16 00:57:13;;;;;;;4.93;1.30;;;7.30;99.90;;;;;;5038066;28;20044;-73
2023/10/16 00:59:41;;;;;;;5.35;1.65;;;7.30;99.90;;;;;;5038063;28;20209;-73
2023/10/16 01:02:17;;;;;;;9.23;1.55;;;7.30;99.90;;;;;;5049439;28;20111;-73
2023/10/16 01:04:44;;;;;;;5.43;1.35;;;7.30;99.90;;;;;;5042416;28;20054;-73
2023/10/16 01:07:14;;;;;;;5.45;1.20;;;7.30;99.90;;;;;;5057888;28;21111;-73
2023/10/16 01:09:40;;;;;;;6.70;1.50;;;7.30;99.90;;;;;;5042119;28;20061;-73
2023/10/16 01:12:07;;;;;;;5.97;1.30;;;7.30;99.90;;;;;;5035996;28;20491;-73
2023/10/16 01:14:35;;;;;;;5.75;1.60;;;7.20;99.90;;;;;;5040476;28;20049;-73
2023/10/16 01:17:14;;;;;;;4.32;1.30;;;7.20;99.90;;;;;;5044095;28;20128;-73
2023/10/16 01:19:44;;;;;;;5.60;1.23;;;7.20;99.90;;;;;;5029372;28;20056;-73
2023/10/16 01:22:13;;;;;;;4.70;1.20;;;7.10;99.90;;;;;;5037658;28;20111;-73
2023/10/16 01:24:43;;;;;;;5.03;1.33;;;7.20;99.90;;;;;;5030536;28;20068;-73
2023/10/16 01:27:14;;;;;;;6.95;1.67;;;7.10;99.90;;;;;;5040936;28;20049;-73
2023/10/16 01:29:40;;;;;;;5.35;1.52;;;7.20;99.90;;;;;;5039719;28;20055;-73
2023/10/16 01:32:09;;;;;;;5.63;1.33;;;7.20;99.90;;;;;;5043069;28;20515;-73
2023/10/16 01:34:35;;;;;;;5.97;1.35;;;7.20;99.90;;;;;;5028993;28;20051;-74
2023/10/16 01:37:08;;;;;;;5.28;1.50;;;7.20;99.90;;;;;;5041763;28;20415;-73
2023/10/16 01:39:53;;;;;;;7.00;1.60;;;7.30;99.90;;;;;;5013878;28;20056;-74
2023/10/16 01:42:19;;;;;;;5.82;1.30;;;7.30;99.90;;;;;;5039556;28;20110;-73
2023/10/16 01:44:46;;;;;;;5.18;1.40;;;7.30;99.90;;;;;;5037736;28;20065;-73
2023/10/16 01:47:18;;;;;;;4.78;1.50;;;7.40;99.90;;;;;;5043560;28;20413;-74
2023/10/16 01:49:49;;;;;;;5.22;1.25;;;7.40;99.90;;;;;;5023259;28;20068;-73
2023/10/16 01:52:14;;;;;;;;;;;7.40;99.90;;;;;;5057358;28;20107;-74
2023/10/16 01:54:45;;;;;;;4.40;1.10;;;7.40;99.90;;;;;;5034239;28;19956;-74
2023/10/16 01:57:12;;;;;;;2.78;1.23;;;7.40;99.90;;;;;;5037767;28;20047;-74
2023/10/16 01:59:45;;;;;;;3.92;1.60;;;7.40;99.90;;;;;;5038678;28;20103;-74
2023/10/16 02:02:12;;;;;;;5.50;1.20;;;7.50;99.90;;;;;;5023205;28;20054;-74
2023/10/16 02:04:39;;;;;;;4.20;1.15;;;7.50;99.90;;;;;;5047542;28;20052;-74
2023/10/16 02:07:06;;;;;;;6.00;1.85;;;7.50;99.90;;;;;;5037154;28;20045;-74
2023/10/16 02:09:36;;;;;;;4.82;1.25;;;7.50;99.90;;;;;;5041865;28;20063;-74
2023/10/16 02:12:10;;;;;;;5.30;1.27;;;7.50;99.90;;;;;;5039791;28;20041;-74
2023/10/16 02:14:41;;;;;;;4.15;1.40;;;7.50;99.90;;;;;;5023307;28;20081;-74
2023/10/16 02:17:21;;;;;;;4.72;1.58;;;7.50;99.90;;;;;;5018732;28;20042;-74
2023/10/16 02:19:47;;;;;;;4.53;1.17;;;7.40;99.90;;;;;;5038010;28;20555;-74
2023/10/16 02:22:16;;;;;;;4.72;1.10;;;7.40;99.90;;;;;;5044367;28;20048;-74
2023/10/16 02:24:42;;;;;;;4.43;1.27;;;7.40;99.90;;;;;;5046173;28;20057;-74
2023/10/16 02:27:12;;;;;;;5.47;1.33;;;7.40;99.90;;;;;;5030946;28;20102;-74
2023/10/16 02:29:41;;;;;;;5.10;1.10;;;7.40;99.90;;;;;;5035663;28;20106;-74
2023/10/16 02:32:10;;;;;;;5.68;1.20;;;7.40;99.90;;;;;;5040711;28;20036;-74
2023/10/16 02:34:36;;;;;;;5.22;1.30;;;7.40;99.90;;;;;;5025081;28;20045;-74
2023/10/16 02:37:06;;;;;;;2.53;0.98;;;7.40;99.90;;;;;;5022477;28;20098;-74
2023/10/16 02:39:37;;;;;;;3.72;0.98;;;7.50;99.90;;;;;;5065845;28;20499;-74
2023/10/16 02:42:08;;;;;;;3.80;1.40;;;7.50;99.90;;;;;;5027993;28;20395;-74
2023/10/16 02:44:38;;;;;;;3.95;1.15;;;7.50;99.90;;;;;;5023150;28;20052;-74
2023/10/16 02:47:06;;;;;;;;;;;7.50;99.90;;;;;;5029645;28;20045;-74
2023/10/16 02:49:33;;;;;;;4.65;1.02;;;7.40;99.90;;;;;;5016755;28;19928;-74
2023/10/16 02:52:04;;;;;;;4.05;1.02;;;7.40;99.90;;;;;;5030301;28;20863;-74
2023/10/16 02:54:30;;;;;;;3.42;1.25;;;7.40;99.90;;;;;;5034316;28;20495;-74
2023/10/16 02:56:59;;;;;;;4.45;1.60;;;7.40;99.90;;;;;;5033695;28;20047;-74
2023/10/16 02:59:26;;;;;;;4.70;1.70;;;7.40;99.90;;;;;;5042071;28;20695;-74
2023/10/16 03:01:56;;;;;;;8.07;2.70;;;7.30;99.90;;;;;;5040005;28;20114;-73
2023/10/16 03:04:23;;;;;;;6.45;2.30;;;7.30;99.90;;;;;;5038603;28;20044;-74
2023/10/16 03:06:54;;;;;;;7.53;2.40;;;7.30;99.90;;;;;;5038253;28;20049;-75
2023/10/16 03:09:25;;;;;;;6.85;3.08;;;7.30;99.90;;;;;;5037953;28;20049;-73
2023/10/16 03:12:09;;;;;;;4.22;3.08;;;7.30;99.90;;;;;;5024526;28;20519;-74
2023/10/16 03:14:44;;;;;;;5.35;2.70;;;7.20;99.90;;;;;;5037040;28;20088;-73
2023/10/16 03:17:22;;;;;;;7.32;4.45;;;7.20;99.90;;;;;;5040889;28;20052;-73
2023/10/16 03:19:48;;;;;;;5.75;4.03;;;7.20;99.90;;;;;;5056360;28;20509;-74
2023/10/16 03:22:17;;;;;;;6.90;4.63;;;7.20;99.90;;;;;;5041928;28;20086;-73
2023/10/16 03:24:43;;;;;;;10.00;5.80;;;7.30;99.90;;;;;;5049854;28;20044;-74
2023/10/16 03:27:09;;;;;;;8.32;4.65;;;7.30;99.90;;;;;;5037939;28;20048;-73
2023/10/16 03:29:35;;;;;;;7.63;4.70;;;7.30;99.90;;;;;;5040952;28;20045;-74
2023/10/16 03:32:02;;;;;;;7.47;4.30;;;7.30;99.90;;;;;;5039564;28;20044;-73
2023/10/16 03:34:31;;;;;;;10.20;5.18;;;7.30;99.90;;;;;;5042457;28;20407;-74
2023/10/16 03:37:03;;;;;;;12.65;6.95;;;7.30;99.90;;;;;;5055398;28;20045;-73
2023/10/16 03:39:31;;;;;;;7.13;4.75;;;7.40;99.90;;;;;;5040785;28;20103;-73
2023/10/16 03:41:57;;;;;;;8.20;4.45;;;7.40;99.90;;;;;;5022692;28;20114;-73
2023/10/16 03:44:26;;;;;;;10.00;5.60;;;7.40;99.90;;;;;;5035109;28;20071;-74
2023/10/16 03:46:52;;;;;;;10.45;5.82;;;7.40;99.90;;;;;;5042178;28;20491;-73
2023/10/16 03:49:18;;;;;;;9.48;5.28;;;7.40;99.90;;;;;;5025660;28;20567;-74
2023/10/16 03:51:45;;;;;;;6.18;4.47;;;7.50;99.90;;;;;;5020033;28;20148;-73
2023/10/16 03:54:12;;;;;;;12.18;6.22;;;7.50;99.90;;;;;;5033816;28;20049;-73
2023/10/16 03:56:39;;;;;;;8.98;5.10;;;7.50;99.90;;;;;;5026229;28;20199;-74
2023/10/16 03:59:06;;;;;;;7.65;5.00;;;7.50;99.90;;;;;;5022936;28;20053;-74
2023/10/16 04:01:37;;;;;;;9.70;5.35;;;7.50;99.90;;;;;;5042241;28;20088;-73
2023/10/16 04:04:12;;;;;;;7.88;4.03;;;7.60;99.90;;;;;;5008556;28;20391;-73
2023/10/16 04:06:39;;;;;;;5.32;3.28;;;7.60;99.90;;;;;;5025164;28;20095;-73
2023/10/16 04:09:06;;;;;;;9.68;5.18;;;7.60;99.90;;;;;;5037437;28;20096;-73
2023/10/16 04:11:32;;;;;;;8.75;5.10;;;7.60;99.90;;;;;;5038557;28;20056;-73
2023/10/16 04:13:59;;;;;;;6.57;3.30;;;7.60;99.90;;;;;;5036134;28;20099;-74
2023/10/16 04:16:44;;;;;;;6.50;3.30;;;7.60;99.90;;;;;;5035989;28;20447;-73
2023/10/16 04:21:44;;;;;;;7.38;4.05;;;7.70;99.90;;;;;;5037555;28;20057;-74
2023/10/16 04:29:49;;;;;;;10.35;4.28;;;7.70;99.90;;;;;;5051793;28;20083;-76
2023/10/16 04:35:29;;;;;;;6.90;3.10;;;7.70;99.90;;;;;;5039542;28;20053;-75
2023/10/16 04:37:54;;;;;;;6.45;3.67;;;7.60;99.90;;;;;;5032280;28;20049;-74
2023/10/16 04:43:37;;;;;;;8.82;3.28;;;7.60;99.90;;;;;;5050240;28;20051;-74
2023/10/16 04:46:19;;;;;;;7.40;3.30;;;7.60;99.90;;;;;;5021475;28;20034;-74
2023/10/16 04:48:48;;;;;;;8.05;3.00;;;7.60;99.90;;;;;;5058169;28;20144;-74
2023/10/16 04:51:22;;;;;;;8.35;3.80;;;7.60;99.90;;;;;;5046470;28;20041;-74
2023/10/16 04:53:58;;;;;;;3.25;2.17;;;7.60;99.90;;;;;;5032229;28;20053;-74
2023/10/16 04:56:57;;;;;;;5.10;2.65;;;7.60;99.90;;;;;;5042658;28;20514;-74
2023/10/16 05:02:16;;;;;;;5.40;2.72;;;7.70;99.90;;;;;;5040388;28;20496;-74
2023/10/16 05:13:37;;;;;;;6.35;3.00;;;7.70;99.90;;;;;;5010644;28;20167;-73
2023/10/16 05:19:03;;;;;;;5.45;3.00;;;7.80;99.90;;;;;;5038225;28;20081;-74
2023/10/16 06:14:13;;;;;;;8.10;4.60;;;7.70;99.90;;;;;;5038104;28;20080;-73
2023/10/16 06:17:01;;;;;;;8.32;3.90;;;7.70;99.90;;;;;;5037296;28;20048;-73
2023/10/16 06:19:26;;;;;;;7.07;3.58;;;7.70;99.90;;;;;;5043346;28;20041;-73
2023/10/16 06:22:06;;;;;;;4.47;3.03;;;7.70;99.90;;;;;;5021985;28;20045;-74
2023/10/16 06:24:44;;;;;;;6.60;3.80;;;7.70;99.90;;;;;;5036386;28;20052;-74
2023/10/16 06:27:11;;;;;;;7.03;3.42;;;7.70;99.90;;;;;;5043421;28;20096;-74
2023/10/16 06:29:51;;;;;;;6.82;3.50;;;7.70;99.90;;;;;;5023048;28;20052;-74
2023/10/16 06:32:21;;;;;;;7.97;4.00;;;7.70;99.90;;;;;;5033825;28;20041;-74
2023/10/16 06:34:47;;;;;;;6.75;3.63;;;7.80;99.90;;;;;;5021442;28;20040;-74
2023/10/16 06:37:19;;;;;;;10.82;5.22;;;7.80;99.90;;;;;;5056153;28;20415;-74
2023/10/16 06:39:45;;;;;;;13.50;6.03;;;7.80;99.90;;;;;;5038238;28;20471;-74
2023/10/16 06:42:17;;;;;;;9.57;4.97;;;7.90;99.90;;;;;;5051464;28;20099;-74
2023/10/16 06:47:41;;;;;;;9.85;4.38;;;8.00;99.90;;;;;;5057947;28;20044;-74
2023/10/16 06:52:49;;;;;;;9.57;3.70;;;8.10;99.90;;;;;;5034964;28;20128;-74
2023/10/16 06:55:16;;;;;;;7.03;3.92;;;8.20;99.90;;;;;;5042295;28;20044;-74
2023/10/16 06:57:43;;;;;;;7.70;4.00;;;8.20;99.90;;;;;;5016646;28;20626;-74
2023/10/16 07:00:22;;;;;;;7.70;4.13;;;8.30;99.90;;;;;;5056997;28;20048;-74
2023/10/16 07:02:54;;;;;;;10.75;4.90;;;8.30;99.90;;;;;;5034734;28;20052;-74
2023/10/16 07:05:43;;;;;;;12.10;4.35;;;8.40;99.90;;;;;;5023500;28;20974;-73
2023/10/16 07:08:16;;;;;;;7.93;3.75;;;8.40;99.90;;;;;;5038594;28;20508;-73
2023/10/16 07:10:55;;;;;;;9.65;3.92;;;8.40;99.90;;;;;;5043159;28;20076;-73
2023/10/16 07:13:28;;;;;;;8.40;4.43;;;8.50;99.90;;;;;;5035733;28;20163;-74
2023/10/16 07:16:02;;;;;;;14.48;5.95;;;8.50;99.90;;;;;;5041076;28;20056;-73
2023/10/16 07:18:31;;;;;;;10.52;4.80;;;8.50;99.90;;;;;;5037960;28;20487;-73
2023/10/16 07:21:07;;;;;;;6.93;3.75;;;8.50;99.90;;;;;;5044619;28;20514;-72
2023/10/16 07:23:37;;;;;;;15.93;6.20;;;8.60;99.90;;;;;;5037861;28;20523;-73
2023/10/16 07:26:09;;;;;;;10.95;4.95;;;8.60;99.90;;;;;;5026634;28;20448;-73
2023/10/16 07:28:35;;;;;;;7.65;3.85;;;8.60;99.90;;;;;;5041229;28;20534;-73
2023/10/16 07:31:02;;;;;;;8.32;4.10;;;8.60;99.90;;;;;;5038859;28;20115;-73
2023/10/16 07:33:28;;;;;;;7.45;3.78;;;8.70;99.90;;;;;;5040198;28;20048;-73
2023/10/16 07:35:57;;;;;;;8.50;4.05;;;8.70;99.90;;;;;;5037559;28;20061;-73
2023/10/16 07:38:25;;;;;;;10.85;4.75;;;8.70;99.90;;;;;;5039870;28;20045;-73
2023/10/16 07:40:59;;;;;;;8.27;3.95;;;8.80;99.90;;;;;;5040816;28;20048;-73
2023/10/16 07:43:29;;;;;;;11.90;5.47;;;8.80;99.90;;;;;;5034365;28;20049;-73
2023/10/16 07:48:40;;;;;;;10.85;5.50;;;8.90;99.90;;;;;;5040605;28;20045;-72
2023/10/16 07:51:09;;;;;;;14.75;4.90;;;8.90;99.90;;;;;;5038429;28;20106;-73
2023/10/16 07:53:36;;;;;;;10.60;4.35;;;9.00;99.90;;;;;;5021069;28;21278;-73
2023/10/16 07:56:02;;;;;;;7.10;3.60;;;9.00;99.90;;;;;;5036671;28;20503;-73
2023/10/16 07:58:35;;;;;;;5.95;3.70;;;9.10;99.90;;;;;;5037495;28;20044;-73
2023/10/16 08:03:36;;;;;;;8.07;3.72;;;9.20;99.90;;;;;;5027930;28;20041;-73
2023/10/16 08:06:06;;;;;;;8.27;3.92;;;9.20;99.90;;;;;;5030924;28;20060;-73
2023/10/16 08:08:38;;;;;;;8.35;3.63;;;9.30;99.90;;;;;;5033440;28;20048;-73
2023/10/16 08:11:42;;;;;;;9.02;4.53;;;9.30;99.90;;;;;;5039817;28;20049;-73
2023/10/16 08:14:06;;;;;;;10.93;4.32;;;9.50;99.90;;;;;;5038464;28;20057;-74
2023/10/16 08:16:32;;;;;;;9.20;4.05;;;9.50;99.90;;;;;;5035762;28;20052;-74
2023/10/16 08:18:58;;;;;;;8.65;4.28;;;9.60;99.90;;;;;;5055801;28;20037;-74
2023/10/16 08:21:26;;;;;;;7.10;3.97;;;9.60;99.90;;;;;;5036032;28;20240;-74
2023/10/16 08:23:57;;;;;;;8.52;3.25;;;9.70;99.90;;;;;;5037386;28;20139;-74
2023/10/16 08:26:30;;;;;;;6.28;2.95;;;9.90;99.90;;;;;;5024501;28;20033;-74
2023/10/16 08:29:19;;;;;;;6.50;2.88;;;9.90;99.90;;;;;;5052136;28;20510;-74
2023/10/16 08:31:47;;;;;;;6.47;3.55;;;10.00;99.90;;;;;;5037482;28;20203;-74
2023/10/16 08:34:19;;;;;;;5.72;2.70;;;10.10;99.90;;;;;;5058470;28;20572;-74
2023/10/16 08:36:52;;;;;;;5.47;2.42;;;10.30;99.90;;;;;;5034691;28;20049;-74
2023/10/16 08:39:19;;;;;;;6.75;3.22;;;10.30;99.90;;;;;;5023093;28;20037;-74
2023/10/16 08:41:51;;;;;;;8.43;2.80;;;10.40;99.90;;;;;;5025680;28;20092;-74
2023/10/16 08:44:18;;;;;;;7.45;2.88;;;10.50;99.90;;;;;;5041282;28;20049;-74
2023/10/16 08:46:45;;;;;;;5.68;2.40;;;10.60;99.90;;;;;;5034583;28;20056;-74
2023/10/16 08:49:11;;;;;;;5.65;2.20;;;10.70;99.90;;;;;;5041424;28;20044;-74
2023/10/16 08:51:38;;;;;;;6.20;2.28;;;10.80;99.90;;;;;;5037578;28;20099;-74
2023/10/16 08:54:26;;;;;;;5.53;2.55;;;10.80;99.90;;;;;;5025783;28;20083;-74
2023/10/16 08:56:53;;;;;;;7.30;2.13;;;10.80;99.90;;;;;;5035383;28;20049;-74
2023/10/16 08:59:21;;;;;;;9.32;2.05;;;10.90;99.90;;;;;;5044559;28;20119;-74
2023/10/16 09:01:48;;;;;;;7.00;2.00;;;10.90;99.90;;;;;;5027533;28;20512;-74
2023/10/16 09:04:17;;;;;;;5.30;1.88;;;10.90;99.90;;;;;;5060048;28;20047;-74
2023/10/16 09:06:43;;;;;;;9.15;2.08;;;10.90;99.90;;;;;;5042099;28;20067;-74
2023/10/16 09:09:16;;;;;;;8.38;1.95;;;10.90;99.90;;;;;;5038402;28;20484;-74
2023/10/16 09:11:49;;;;;;;9.02;1.90;;;10.90;99.90;;;;;;5028863;28;20047;-74
2023/10/16 09:14:20;;;;;;;8.45;2.15;;;10.90;99.90;;;;;;5036154;28;20063;-74
2023/10/16 09:16:55;;;;;;;6.70;1.90;;;10.80;99.90;;;;;;5041907;28;20053;-74
2023/10/16 09:19:33;;;;;;;8.68;2.05;;;10.80;99.90;;;;;;5040373;28;20042;-74
2023/10/16 09:22:08;;;;;;;6.95;1.92;;;10.80;99.90;;;;;;5042560;28;20068;-74
2023/10/16 09:24:35;;;;;;;7.40;1.80;;;10.80;99.90;;;;;;5041376;28;20368;-74
2023/10/16 09:27:22;;;;;;;5.90;2.00;;;10.80;99.90;;;;;;5044039;28;20049;-74
2023/10/16 09:29:55;;;;;;;7.90;1.58;;;10.80;99.90;;;;;;5043856;28;20053;-72
2023/10/16 09:32:36;;;;;;;8.77;1.60;;;10.90;99.90;;;;;;5042278;28;20582;-74
2023/10/16 09:35:06;;;;;;;5.97;1.70;;;10.90;99.90;;;;;;5026846;28;20239;-74
2023/10/16 09:37:36;;;;;;;5.57;1.42;;;10.90;99.90;;;;;;5058497;28;20055;-74
2023/10/16 09:43:05;;;;;;;8.88;2.70;;;11.00;99.90;;;;;;5036661;28;20518;-74
2023/10/16 09:45:35;;;;;;;8.32;1.90;;;11.00;99.90;;;;;;5058372;28;20114;-74
2023/10/16 09:48:19;;;;;;;6.60;1.85;;;11.00;99.90;;;;;;5038101;28;20053;-74
2023/10/16 09:50:45;;;;;;;4.60;1.60;;;11.00;99.90;;;;;;5028608;28;20086;-73
2023/10/16 09:53:11;;;;;;;6.55;1.50;;;11.10;99.90;;;;;;5039897;28;20069;-74
2023/10/16 09:55:39;;;;;;;6.25;1.77;;;11.10;99.90;;;;;;5044126;28;20076;-73
2023/10/16 09:58:09;;;;;;;6.40;1.42;;;11.20;99.90;;;;;;5040569;28;21228;-73
2023/10/16 10:00:38;;;;;;;5.60;1.60;;;11.20;99.90;;;;;;5040532;28;21236;-73
2023/10/16 10:03:08;;;;;;;7.55;1.80;;;11.30;99.90;;;;;;5038992;28;20072;-73
2023/10/16 10:06:06;;;;;;;6.20;1.57;;;11.40;99.90;;;;;;5041880;28;20037;-77
2023/10/16 10:08:53;;;;;;;6.00;1.85;;;11.50;99.90;;;;;;5039268;28;20190;-77
2023/10/16 10:11:38;;;;;;;7.97;2.38;;;11.50;99.90;;;;;;5052497;28;20045;-77
2023/10/16 10:16:56;;;;;;;9.40;1.52;;;11.60;99.90;;;;;;5037178;28;20049;-77
2023/10/16 10:19:35;;;;;;;8.43;1.80;;;11.50;99.90;;;;;;5052382;28;20073;-77
2023/10/16 10:22:26;;;;;;;6.93;1.48;;;11.50;99.90;;;;;;5036747;28;20041;-77
2023/10/16 10:25:17;;;;;;;6.40;1.50;;;11.40;99.90;;;;;;5054425;28;20045;-76
2023/10/16 10:27:44;;;;;;;;;;;11.30;99.90;;;;;;5018075;28;20061;-77
2023/10/16 10:30:25;;;;;;;6.57;1.40;;;11.20;99.90;;;;;;5037033;28;19925;-77
2023/10/16 10:32:57;;;;;;;7.10;1.40;;;11.20;99.90;;;;;;5048467;28;20052;-76
2023/10/16 10:35:28;;;;;;;6.35;1.45;;;11.20;99.90;;;;;;5018658;28;20037;-77
2023/10/16 10:38:29;;;;;;;6.88;1.85;;;11.20;99.90;;;;;;5033820;28;20106;-77
2023/10/16 10:41:04;;;;;;;7.45;1.48;;;11.30;99.90;;;;;;5024566;28;20542;-77
2023/10/16 10:43:46;;;;;;;5.38;1.35;;;11.30;99.90;;;;;;5043122;28;20084;-77
2023/10/16 10:46:24;;;;;;;5.43;1.40;;;11.30;99.90;;;;;;5014504;28;20052;-76
2023/10/16 10:48:50;;;;;;;10.27;1.90;;;11.30;99.90;;;;;;5035717;28;20046;-77
2023/10/16 10:51:16;;;;;;;6.40;1.92;;;11.30;99.90;;;;;;5048940;28;20049;-77
2023/10/16 10:53:56;;;;;;;7.82;1.63;;;11.30;99.90;;;;;;5035609;28;20132;-76
2023/10/16 10:56:22;;;;;;;10.50;2.03;;;11.40;99.90;;;;;;5029754;28;20041;-77
2023/10/16 10:58:49;;;;;;;5.95;1.70;;;11.40;99.90;;;;;;5043812;28;20052;-77
2023/10/16 11:01:33;;;;;;;6.32;1.55;;;11.40;99.90;;;;;;5043792;28;20451;-76
2023/10/16 11:04:09;;;;;;;6.75;1.40;;;11.50;99.90;;;;;;5023722;28;20120;-76
2023/10/16 11:06:48;;;;;;;4.90;1.17;;;11.50;99.90;;;;;;5035239;28;20053;-76
2023/10/16 11:09:18;;;;;;;8.02;1.50;;;11.50;99.90;;;;;;5029022;28;20124;-77
2023/10/16 11:11:47;;;;;;;3.80;1.08;;;11.60;99.90;;;;;;5040763;28;20119;-76
2023/10/16 11:14:14;;;;;;;6.45;1.50;;;11.60;99.90;;;;;;5042012;28;20044;-76
2023/10/16 11:16:49;;;;;;;5.53;1.00;;;11.70;99.90;;;;;;5040434;28;20060;-76
2023/10/16 11:19:35;;;;;;;6.05;1.25;;;11.70;99.90;;;;;;5020628;28;20045;-76
2023/10/16 11:22:09;;;;;;;6.78;1.88;;;11.80;99.90;;;;;;5041367;28;20041;-76
2023/10/16 11:24:36;;;;;;;5.03;1.15;;;11.80;99.90;;;;;;5028019;28;20056;-78
2023/10/16 11:27:05;;;;;;;5.70;1.48;;;11.80;99.90;;;;;;5033195;28;20380;-73
2023/10/16 11:29:33;;;;;;;5.90;1.40;;;11.90;99.90;;;;;;5035343;28;20399;-73
2023/10/16 11:32:06;;;;;;;5.55;1.40;;;11.90;99.90;;;;;;5058637;28;20345;-73
2023/10/16 11:34:59;;;;;;;5.47;1.40;;;11.90;99.90;;;;;;5036725;28;20065;-73
2023/10/16 11:37:25;;;;;;;4.82;1.60;;;12.00;99.90;;;;;;5053134;28;20474;-73
2023/10/16 11:39:57;;;;;;;6.55;1.40;;;12.00;99.90;;;;;;5020733;28;20045;-73
2023/10/16 11:42:25;;;;;;;6.38;1.35;;;12.10;99.90;;;;;;5030555;28;20059;-73
2023/10/16 11:44:52;;;;;;;5.35;1.20;;;12.10;99.90;;;;;;5053947;28;20049;-73
2023/10/16 11:47:18;;;;;;;4.95;1.38;;;12.10;99.90;;;;;;5017570;28;20037;-73
2023/10/16 11:49:53;;;;;;;8.02;1.73;;;12.10;99.90;;;;;;5016746;28;20041;-74
2023/10/16 11:52:21;;;;;;;4.85;1.27;;;12.10;99.90;;;;;;5022182;28;20492;-73
2023/10/16 11:54:48;;;;;;;5.50;1.17;;;12.20;99.90;;;;;;5022697;28;20068;-73
2023/10/16 11:57:14;;;;;;;3.70;1.25;;;12.20;99.90;;;;;;5024464;28;20037;-74
2023/10/16 11:59:41;;;;;;;6.10;1.10;;;12.30;99.90;;;;;;5034572;28;20053;-73
2023/10/16 12:02:11;;;;;;;4.95;0.98;;;12.30;99.90;;;;;;5053370;28;20045;-74
2023/10/16 12:04:37;;;;;;;5.47;1.02;;;12.30;99.90;;;;;;5038045;28;20049;-73
2023/10/16 12:07:03;;;;;;;4.10;1.00;;;12.30;99.90;;;;;;5030265;28;20470;-73
2023/10/16 12:09:36;;;;;;;4.93;1.10;;;12.30;99.90;;;;;;5022180;28;20049;-74
2023/10/16 12:12:06;;;;;;;4.22;0.93;;;12.30;99.90;;;;;;5031492;28;20520;-74
2023/10/16 12:14:39;;;;;;;5.88;1.33;;;12.30;99.90;;;;;;5050873;28;20083;-74
2023/10/16 12:17:11;;;;;;;5.35;1.15;;;12.40;99.90;;;;;;5028549;28;20047;-74
2023/10/16 12:19:37;;;;;;;4.80;0.90;;;12.30;99.90;;;;;;5029254;28;20042;-74
2023/10/16 12:22:10;;;;;;;4.25;1.17;;;12.30;99.90;;;;;;5014357;28;20041;-74
2023/10/16 12:24:36;;;;;;;3.08;0.90;;;12.40;99.90;;;;;;5034551;28;20092;-74
2023/10/16 12:27:01;;;;;;;4.47;1.13;;;12.30;99.90;;;;;;5031505;28;20508;-74
2023/10/16 12:29:28;;;;;;;5.50;1.30;;;12.40;99.90;;;;;;5024211;28;20531;-74
2023/10/16 12:31:55;;;;;;;4.50;0.80;;;12.30;99.90;;;;;;5036983;28;20111;-74
2023/10/16 12:34:22;;;;;;;5.22;1.35;;;12.30;99.90;;;;;;5039129;28;20237;-74
2023/10/16 12:36:49;;;;;;;4.18;1.20;;;12.30;99.90;;;;;;5023388;28;20045;-74
2023/10/16 12:39:28;;;;;;;5.57;1.30;;;12.30;99.90;;;;;;5041976;28;20047;-74
2023/10/16 12:41:58;;;;;;;4.13;1.10;;;12.30;99.90;;;;;;5029584;28;20056;-74
2023/10/16 12:44:24;;;;;;;4.63;1.10;;;12.30;99.90;;;;;;5049045;28;20326;-74
2023/10/16 12:46:56;;;;;;;4.10;1.33;;;12.30;99.90;;;;;;5043818;28;20045;-74
2023/10/16 12:49:23;;;;;;;6.22;1.15;;;12.30;99.90;;;;;;5029454;28;20515;-74
2023/10/16 12:51:53;;;;;;;3.97;1.13;;;12.30;99.90;;;;;;5038465;28;20242;-74
2023/10/16 12:54:24;;;;;;;6.88;1.58;;;12.30;99.90;;;;;;5033733;28;20037;-74
2023/10/16 12:56:52;;;;;;;4.43;0.98;;;12.30;99.90;;;;;;5039938;28;20518;-74
2023/10/16 12:59:19;;;;;;;5.90;1.27;;;12.30;99.90;;;;;;5032308;28;20037;-74
2023/10/16 13:01:49;;;;;;;5.07;1.00;;;12.30;99.90;;;;;;5028393;28;20553;-74
2023/10/16 13:04:17;;;;;;;7.00;1.40;;;12.30;99.90;;;;;;5030874;28;20060;-74
2023/10/16 13:06:43;;;;;;;3.45;1.05;;;12.30;99.90;;;;;;5042756;28;20511;-74
2023/10/16 13:09:18;;;;;;;3.42;0.80;;;12.30;99.90;;;;;;5028405;28;20099;-74
2023/10/16 13:11:45;;;;;;;7.18;1.40;;;12.40;99.90;;;;;;5044710;28;20045;-74
2023/10/16 13:14:12;;;;;;;5.70;1.17;;;12.30;99.90;;;;;;5039366;28;20508;-74
2023/10/16 13:16:40;;;;;;;4.25;1.23;;;12.40;99.90;;;;;;5043430;28;20060;-74
2023/10/16 13:19:09;;;;;;;5.45;1.20;;;12.30;99.90;;;;;;5032449;28;20160;-74
2023/10/16 13:21:38;;;;;;;6.28;1.20;;;12.30;99.90;;;;;;5041883;28;20049;-74
2023/10/16 13:24:09;;;;;;;3.17;1.33;;;12.30;99.90;;;;;;5031424;28;20033;-74
2023/10/16 13:26:36;;;;;;;5.45;1.20;;;12.40;99.90;;;;;;5043859;28;20049;-74
2023/10/16 13:29:10;;;;;;;5.25;1.50;;;12.40;99.90;;;;;;5032366;28;20053;-74
2023/10/16 13:31:37;;;;;;;5.22;1.40;;;12.40;99.90;;;;;;5043115;28;20491;-74
2023/10/16 13:34:07;;;;;;;6.05;1.05;;;12.40;99.90;;;;;;5017878;28;20468;-75
2023/10/16 13:36:35;;;;;;;5.50;1.05;;;12.40;99.90;;;;;;5042495;28;20049;-74
2023/10/16 13:39:08;;;;;;;5.20;1.17;;;12.30;99.90;;;;;;5027800;28;20102;-73
2023/10/16 13:41:50;;;;;;;6.15;1.63;;;12.30;99.90;;;;;;5016122;28;20056;-73
2023/10/16 13:44:23;;;;;;;5.03;1.52;;;12.30;99.90;;;;;;5034666;28;20503;-73
2023/10/16 13:46:50;;;;;;;10.52;1.85;;;12.30;99.90;;;;;;5017066;28;20053;-74
2023/10/16 13:49:17;;;;;;;5.88;1.77;;;12.30;99.90;;;;;;5039289;28;20723;-73
2023/10/16 13:51:45;;;;;;;4.70;1.63;;;12.40;99.90;;;;;;5026139;28;20269;-74
2023/10/16 13:54:14;;;;;;;6.40;1.38;;;12.40;99.90;;;;;;5042131;28;20676;-73
2023/10/16 13:56:46;;;;;;;4.75;1.10;;;12.40;99.90;;;;;;5037795;28;20053;-74
2023/10/16 13:59:12;;;;;;;6.93;1.50;;;12.40;99.90;;;;;;5035019;28;20139;-73
2023/10/16 14:01:39;;;;;;;5.00;1.20;;;12.40;99.90;;;;;;5036896;28;20049;-73
2023/10/16 14:04:14;;;;;;;5.32;1.52;;;12.40;99.90;;;;;;5042012;28;20045;-74
2023/10/16 14:06:52;;;;;;;5.25;1.58;;;12.40;99.90;;;;;;5031032;28;20511;-73
2023/10/16 14:09:27;;;;;;;8.10;2.13;;;12.40;99.90;;;;;;5038142;28;20061;-73
2023/10/16 14:11:58;;;;;;;7.65;1.77;;;12.50;99.90;;;;;;5043361;28;20053;-73
2023/10/16 14:14:26;;;;;;;6.50;1.90;;;12.40;99.90;;;;;;5034409;28;20060;-73
2023/10/16 14:17:03;;;;;;;6.63;1.50;;;12.40;99.90;;;;;;5049269;28;20037;-73
2023/10/16 14:19:31;;;;;;;6.90;1.42;;;12.40;99.90;;;;;;5034356;28;20075;-73
2023/10/16 14:21:58;;;;;;;8.90;2.45;;;12.40;99.90;;;;;;5026221;28;20077;-73
2023/10/16 14:24:25;;;;;;;6.57;2.28;;;12.30;99.90;;;;;;5041894;28;20296;-73
2023/10/16 14:26:58;;;;;;;6.85;2.28;;;12.30;99.90;;;;;;5039503;28;20048;-74
2023/10/16 14:29:24;;;;;;;5.85;1.90;;;12.30;99.90;;;;;;5019664;28;20636;-73
2023/10/16 14:31:52;;;;;;;6.07;1.98;;;12.20;99.90;;;;;;5059787;28;20497;-78
2023/10/16 14:34:22;;;;;;;5.85;1.80;;;12.20;99.90;;;;;;5040107;28;20045;-78
2023/10/16 14:36:52;;;;;;;6.82;1.73;;;12.20;99.90;;;;;;5040851;28;20045;-78
2023/10/16 14:39:19;;;;;;;5.97;1.58;;;12.20;99.90;;;;;;5039499;28;20122;-78
2023/10/16 14:41:45;;;;;;;5.22;1.75;;;12.10;99.90;;;;;;5053359;28;20057;-78
2023/10/16 14:44:11;;;;;;;6.07;1.52;;;12.10;99.90;;;;;;5040053;28;20116;-77
2023/10/16 14:46:38;;;;;;;7.68;2.72;;;12.20;99.90;;;;;;5023923;28;20048;-78
2023/10/16 14:49:08;;;;;;;6.20;1.90;;;12.20;99.90;;;;;;5037348;28;20102;-78